sensor_id;sensor_type;location;lat;lon;timestamp;temperature;humidity
78366;HTU21D;67641;59.864;30.464;2023-07-16T00:00:06;29.60;29.58
78366;HTU21D;67641;59.864;30.464;2023-07-16T00:02:34;29.62;29.40
78366;HTU21D;67641;59.864;30.464;2023-07-16T00:05:01;29.54;29.72
78366;HTU21D;67641;59.864;30.464;2023-07-16T00:08:59;29.49;29.87
78366;HTU21D;67641;59.864;30.464;2023-07-16T00:11:25;29.47;29.80
78366;HTU21D;67641;59.864;30.464;2023-07-16T00:13:52;29.45;29.74
78366;HTU21D;67641;59.864;30.464;2023-07-16T00:16:18;29.47;29.83
78366;HTU21D;67641;59.864;30.464;2023-07-16T00:18:45;29.52;30.34
78366;HTU21D;67641;59.864;30.464;2023-07-16T00:21:11;29.52;29.26
78366;HTU21D;67641;59.864;30.464;2023-07-16T00:23:37;29.53;29.30
78366;HTU21D;67641;59.864;30.464;2023-07-16T00:26:04;29.58;29.58
78366;HTU21D;67641;59.864;30.464;2023-07-16T00:30:34;29.46;30.15
78366;HTU21D;67641;59.864;30.464;2023-07-16T00:33:00;29.46;29.93
78366;HTU21D;67641;59.864;30.464;2023-07-16T00:35:27;29.45;29.82
78366;HTU21D;67641;59.864;30.464;2023-07-16T00:37:53;29.39;29.98
78366;HTU21D;67641;59.864;30.464;2023-07-16T00:40:19;29.37;30.22
78366;HTU21D;67641;59.864;30.464;2023-07-16T00:42:45;29.37;30.53
78366;HTU21D;67641;59.864;30.464;2023-07-16T00:45:12;29.26;30.83
78366;HTU21D;67641;59.864;30.464;2023-07-16T00:47:41;29.27;30.64
78366;HTU21D;67641;59.864;30.464;2023-07-16T00:51:54;29.20;30.60
78366;HTU21D;67641;59.864;30.464;2023-07-16T00:54:21;29.13;30.55
78366;HTU21D;67641;59.864;30.464;2023-07-16T00:56:48;29.07;30.85
78366;HTU21D;67641;59.864;30.464;2023-07-16T00:59:15;29.06;30.24
78366;HTU21D;67641;59.864;30.464;2023-07-16T01:01:42;29.06;31.57
78366;HTU21D;67641;59.864;30.464;2023-07-16T01:04:08;29.01;31.36
78366;HTU21D;67641;59.864;30.464;2023-07-16T01:06:48;29.00;31.13
78366;HTU21D;67641;59.864;30.464;2023-07-16T01:09:18;29.02;30.82
78366;HTU21D;67641;59.864;30.464;2023-07-16T01:13:31;28.98;31.29
78366;HTU21D;67641;59.864;30.464;2023-07-16T01:15:58;28.94;31.78
78366;HTU21D;67641;59.864;30.464;2023-07-16T01:18:24;28.93;31.42
78366;HTU21D;67641;59.864;30.464;2023-07-16T01:20:51;28.94;31.31
78366;HTU21D;67641;59.864;30.464;2023-07-16T01:23:32;28.90;31.29
78366;HTU21D;67641;59.864;30.464;2023-07-16T01:26:08;28.91;31.40
78366;HTU21D;67641;59.864;30.464;2023-07-16T01:29:18;28.87;31.41
78366;HTU21D;67641;59.864;30.464;2023-07-16T01:34:43;28.85;31.34
78366;HTU21D;67641;59.864;30.464;2023-07-16T01:37:10;28.82;31.54
78366;HTU21D;67641;59.864;30.464;2023-07-16T01:39:37;28.80;31.78
78366;HTU21D;67641;59.864;30.464;2023-07-16T01:42:03;28.82;31.64
78366;HTU21D;67641;59.864;30.464;2023-07-16T01:44:30;28.77;32.35
78366;HTU21D;67641;59.864;30.464;2023-07-16T01:49:36;28.73;31.90
78366;HTU21D;67641;59.864;30.464;2023-07-16T01:52:04;28.72;32.38
78366;HTU21D;67641;59.864;30.464;2023-07-16T01:54:48;28.67;31.90
78366;HTU21D;67641;59.864;30.464;2023-07-16T01:57:15;28.62;31.83
78366;HTU21D;67641;59.864;30.464;2023-07-16T01:59:41;28.63;32.52
78366;HTU21D;67641;59.864;30.464;2023-07-16T02:02:07;28.61;31.39
78366;HTU21D;67641;59.864;30.464;2023-07-16T02:04:34;28.61;32.16
78366;HTU21D;67641;59.864;30.464;2023-07-16T02:07:00;28.60;32.09
78366;HTU21D;67641;59.864;30.464;2023-07-16T02:09:26;28.58;31.91
78366;HTU21D;67641;59.864;30.464;2023-07-16T02:11:52;28.61;32.18
78366;HTU21D;67641;59.864;30.464;2023-07-16T02:16:04;28.67;31.55
78366;HTU21D;67641;59.864;30.464;2023-07-16T02:18:31;28.71;31.36
78366;HTU21D;67641;59.864;30.464;2023-07-16T02:20:57;28.70;31.80
78366;HTU21D;67641;59.864;30.464;2023-07-16T02:23:24;28.64;31.82
78366;HTU21D;67641;59.864;30.464;2023-07-16T02:25:50;28.63;31.64
78366;HTU21D;67641;59.864;30.464;2023-07-16T02:28:22;28.61;32.29
78366;HTU21D;67641;59.864;30.464;2023-07-16T02:30:55;28.59;31.94
78366;HTU21D;67641;59.864;30.464;2023-07-16T02:33:21;28.57;31.61
78366;HTU21D;67641;59.864;30.464;2023-07-16T02:37:48;28.55;31.47
78366;HTU21D;67641;59.864;30.464;2023-07-16T02:40:17;28.44;31.69
78366;HTU21D;67641;59.864;30.464;2023-07-16T02:42:43;28.44;31.77
78366;HTU21D;67641;59.864;30.464;2023-07-16T02:45:10;28.40;31.49
78366;HTU21D;67641;59.864;30.464;2023-07-16T02:47:36;28.41;32.37
78366;HTU21D;67641;59.864;30.464;2023-07-16T02:50:02;28.34;32.03
78366;HTU21D;67641;59.864;30.464;2023-07-16T02:52:29;28.33;31.77
78366;HTU21D;67641;59.864;30.464;2023-07-16T02:54:55;28.35;32.70
78366;HTU21D;67641;59.864;30.464;2023-07-16T02:59:01;28.40;32.15
78366;HTU21D;67641;59.864;30.464;2023-07-16T03:01:27;28.44;32.00
78366;HTU21D;67641;59.864;30.464;2023-07-16T03:03:54;28.46;31.82
78366;HTU21D;67641;59.864;30.464;2023-07-16T03:06:20;28.44;32.40
78366;HTU21D;67641;59.864;30.464;2023-07-16T03:08:46;28.43;32.22
78366;HTU21D;67641;59.864;30.464;2023-07-16T03:11:15;28.41;32.83
78366;HTU21D;67641;59.864;30.464;2023-07-16T03:13:41;28.41;32.39
78366;HTU21D;67641;59.864;30.464;2023-07-16T03:16:07;28.41;32.46
78366;HTU21D;67641;59.864;30.464;2023-07-16T03:20:49;28.41;32.65
78366;HTU21D;67641;59.864;30.464;2023-07-16T03:23:15;28.40;32.28
78366;HTU21D;67641;59.864;30.464;2023-07-16T03:25:41;28.41;33.34
78366;HTU21D;67641;59.864;30.464;2023-07-16T03:28:07;28.43;32.62
78366;HTU21D;67641;59.864;30.464;2023-07-16T03:30:34;28.42;33.16
78366;HTU21D;67641;59.864;30.464;2023-07-16T03:33:00;28.35;34.05
78366;HTU21D;67641;59.864;30.464;2023-07-16T03:35:30;28.40;33.76
78366;HTU21D;67641;59.864;30.464;2023-07-16T03:38:01;28.41;33.56
78366;HTU21D;67641;59.864;30.464;2023-07-16T03:40:28;28.48;32.44
78366;HTU21D;67641;59.864;30.464;2023-07-16T03:43:17;28.56;34.69
78366;HTU21D;67641;59.864;30.464;2023-07-16T03:45:44;28.58;34.29
78366;HTU21D;67641;59.864;30.464;2023-07-16T03:48:10;28.58;34.21
78366;HTU21D;67641;59.864;30.464;2023-07-16T03:50:36;28.61;34.89
78366;HTU21D;67641;59.864;30.464;2023-07-16T03:53:03;28.63;34.99
78366;HTU21D;67641;59.864;30.464;2023-07-16T03:55:29;28.64;35.06
78366;HTU21D;67641;59.864;30.464;2023-07-16T03:57:56;28.60;35.02
78366;HTU21D;67641;59.864;30.464;2023-07-16T04:00:22;28.63;34.76
78366;HTU21D;67641;59.864;30.464;2023-07-16T04:05:18;28.67;35.15
78366;HTU21D;67641;59.864;30.464;2023-07-16T04:07:47;28.71;35.91
78366;HTU21D;67641;59.864;30.464;2023-07-16T04:10:16;28.71;35.34
78366;HTU21D;67641;59.864;30.464;2023-07-16T04:12:43;28.78;35.36
78366;HTU21D;67641;59.864;30.464;2023-07-16T04:15:09;28.79;35.82
78366;HTU21D;67641;59.864;30.464;2023-07-16T04:17:36;28.78;37.58
78366;HTU21D;67641;59.864;30.464;2023-07-16T04:20:03;28.82;35.02
78366;HTU21D;67641;59.864;30.464;2023-07-16T04:22:30;28.89;34.61
78366;HTU21D;67641;59.864;30.464;2023-07-16T04:38:08;29.00;38.43
78366;HTU21D;67641;59.864;30.464;2023-07-16T04:40:36;29.04;39.57
78366;HTU21D;67641;59.864;30.464;2023-07-16T04:43:12;29.07;38.83
78366;HTU21D;67641;59.864;30.464;2023-07-16T04:45:44;29.11;39.39
78366;HTU21D;67641;59.864;30.464;2023-07-16T04:48:15;29.15;39.56
78366;HTU21D;67641;59.864;30.464;2023-07-16T04:50:42;29.18;39.81
78366;HTU21D;67641;59.864;30.464;2023-07-16T04:53:08;29.21;39.07
78366;HTU21D;67641;59.864;30.464;2023-07-16T04:55:38;29.20;39.85
78366;HTU21D;67641;59.864;30.464;2023-07-16T04:58:39;29.22;32.30
78366;HTU21D;67641;59.864;30.464;2023-07-16T05:01:05;29.27;30.67
78366;HTU21D;67641;59.864;30.464;2023-07-16T05:03:31;29.33;33.34
78366;HTU21D;67641;59.864;30.464;2023-07-16T05:05:58;29.38;33.83
78366;HTU21D;67641;59.864;30.464;2023-07-16T05:08:24;29.43;31.51
78366;HTU21D;67641;59.864;30.464;2023-07-16T05:10:50;29.42;34.31
78366;HTU21D;67641;59.864;30.464;2023-07-16T05:13:17;29.42;33.35
78366;HTU21D;67641;59.864;30.464;2023-07-16T05:15:46;29.46;30.71
78366;HTU21D;67641;59.864;30.464;2023-07-16T05:20:13;29.51;31.73
78366;HTU21D;67641;59.864;30.464;2023-07-16T05:22:40;29.53;29.12
78366;HTU21D;67641;59.864;30.464;2023-07-16T05:25:07;29.56;30.05
78366;HTU21D;67641;59.864;30.464;2023-07-16T05:27:33;29.59;29.89
78366;HTU21D;67641;59.864;30.464;2023-07-16T05:30:01;29.62;30.28
78366;HTU21D;67641;59.864;30.464;2023-07-16T05:32:28;29.63;28.74
78366;HTU21D;67641;59.864;30.464;2023-07-16T05:34:54;29.67;29.04
78366;HTU21D;67641;59.864;30.464;2023-07-16T05:37:20;29.72;29.03
78366;HTU21D;67641;59.864;30.464;2023-07-16T05:41:18;29.75;29.65
78366;HTU21D;67641;59.864;30.464;2023-07-16T05:43:45;29.77;30.25
78366;HTU21D;67641;59.864;30.464;2023-07-16T05:46:11;29.79;28.36
78366;HTU21D;67641;59.864;30.464;2023-07-16T05:48:37;29.82;28.39
78366;HTU21D;67641;59.864;30.464;2023-07-16T05:51:03;29.86;27.78
78366;HTU21D;67641;59.864;30.464;2023-07-16T05:53:30;29.90;27.27
78366;HTU21D;67641;59.864;30.464;2023-07-16T05:55:56;29.93;27.31
78366;HTU21D;67641;59.864;30.464;2023-07-16T05:58:33;29.93;27.20
78366;HTU21D;67641;59.864;30.464;2023-07-16T06:03:42;30.01;27.30
78366;HTU21D;67641;59.864;30.464;2023-07-16T06:06:09;30.01;28.66
78366;HTU21D;67641;59.864;30.464;2023-07-16T06:08:35;30.05;27.34
78366;HTU21D;67641;59.864;30.464;2023-07-16T06:11:02;30.08;27.09
78366;HTU21D;67641;59.864;30.464;2023-07-16T06:13:30;30.09;27.15
78366;HTU21D;67641;59.864;30.464;2023-07-16T06:15:56;30.12;27.06
78366;HTU21D;67641;59.864;30.464;2023-07-16T06:18:23;30.13;26.98
78366;HTU21D;67641;59.864;30.464;2023-07-16T06:20:52;30.16;26.33
78366;HTU21D;67641;59.864;30.464;2023-07-16T06:25:33;30.22;27.78
78366;HTU21D;67641;59.864;30.464;2023-07-16T06:28:00;30.24;28.11
78366;HTU21D;67641;59.864;30.464;2023-07-16T06:30:27;30.27;27.62
78366;HTU21D;67641;59.864;30.464;2023-07-16T06:32:53;30.32;27.30
78366;HTU21D;67641;59.864;30.464;2023-07-16T06:35:20;30.36;29.11
78366;HTU21D;67641;59.864;30.464;2023-07-16T06:37:46;30.36;28.16
78366;HTU21D;67641;59.864;30.464;2023-07-16T06:40:16;30.38;27.37
78366;HTU21D;67641;59.864;30.464;2023-07-16T06:42:42;30.39;28.02
78366;HTU21D;67641;59.864;30.464;2023-07-16T06:51:13;30.48;27.81
78366;HTU21D;67641;59.864;30.464;2023-07-16T06:56:44;30.50;29.26
78366;HTU21D;67641;59.864;30.464;2023-07-16T06:59:19;30.50;28.55
78366;HTU21D;67641;59.864;30.464;2023-07-16T07:01:56;30.50;29.13
78366;HTU21D;67641;59.864;30.464;2023-07-16T07:04:25;30.55;29.67
78366;HTU21D;67641;59.864;30.464;2023-07-16T07:06:51;30.55;29.27
78366;HTU21D;67641;59.864;30.464;2023-07-16T07:09:18;30.61;27.97
78366;HTU21D;67641;59.864;30.464;2023-07-16T07:14:33;30.62;28.35
78366;HTU21D;67641;59.864;30.464;2023-07-16T07:17:35;30.66;27.99
78366;HTU21D;67641;59.864;30.464;2023-07-16T07:20:19;30.72;27.42
78366;HTU21D;67641;59.864;30.464;2023-07-16T07:23:17;30.76;28.18
78366;HTU21D;67641;59.864;30.464;2023-07-16T07:25:55;30.79;28.00
78366;HTU21D;67641;59.864;30.464;2023-07-16T07:28:55;30.78;27.78
78366;HTU21D;67641;59.864;30.464;2023-07-16T07:31:33;30.78;28.27
78366;HTU21D;67641;59.864;30.464;2023-07-16T07:34:05;30.82;28.45
78366;HTU21D;67641;59.864;30.464;2023-07-16T07:44:48;30.92;28.57
78366;HTU21D;67641;59.864;30.464;2023-07-16T07:47:18;30.92;26.66
78366;HTU21D;67641;59.864;30.464;2023-07-16T07:49:44;30.95;28.17
78366;HTU21D;67641;59.864;30.464;2023-07-16T07:52:11;30.96;29.22
78366;HTU21D;67641;59.864;30.464;2023-07-16T07:54:38;31.01;28.13
78366;HTU21D;67641;59.864;30.464;2023-07-16T07:57:07;31.07;27.89
78366;HTU21D;67641;59.864;30.464;2023-07-16T08:01:42;31.15;28.03
78366;HTU21D;67641;59.864;30.464;2023-07-16T08:04:17;31.19;27.81
78366;HTU21D;67641;59.864;30.464;2023-07-16T08:06:44;31.24;27.43
78366;HTU21D;67641;59.864;30.464;2023-07-16T08:09:10;31.25;28.11
78366;HTU21D;67641;59.864;30.464;2023-07-16T08:11:37;31.27;29.49
78366;HTU21D;67641;59.864;30.464;2023-07-16T08:14:03;31.28;28.82
78366;HTU21D;67641;59.864;30.464;2023-07-16T08:16:29;31.38;27.28
78366;HTU21D;67641;59.864;30.464;2023-07-16T08:18:56;31.39;27.98
78366;HTU21D;67641;59.864;30.464;2023-07-16T08:23:31;31.48;27.69
78366;HTU21D;67641;59.864;30.464;2023-07-16T08:26:16;31.56;27.65
78366;HTU21D;67641;59.864;30.464;2023-07-16T08:28:43;31.57;26.78
78366;HTU21D;67641;59.864;30.464;2023-07-16T08:31:10;31.58;28.24
78366;HTU21D;67641;59.864;30.464;2023-07-16T08:33:39;31.72;27.67
78366;HTU21D;67641;59.864;30.464;2023-07-16T08:39:18;31.85;28.26
78366;HTU21D;67641;59.864;30.464;2023-07-16T08:43:46;31.94;26.74
78366;HTU21D;67641;59.864;30.464;2023-07-16T08:46:16;31.97;26.11
78366;HTU21D;67641;59.864;30.464;2023-07-16T08:48:48;31.98;25.96
78366;HTU21D;67641;59.864;30.464;2023-07-16T08:51:16;31.96;27.78
78366;HTU21D;67641;59.864;30.464;2023-07-16T08:53:44;32.00;27.31
78366;HTU21D;67641;59.864;30.464;2023-07-16T08:56:10;31.98;27.85
78366;HTU21D;67641;59.864;30.464;2023-07-16T08:58:37;31.98;28.55
78366;HTU21D;67641;59.864;30.464;2023-07-16T09:01:06;32.03;27.90
78366;HTU21D;67641;59.864;30.464;2023-07-16T09:05:27;32.08;27.55
78366;HTU21D;67641;59.864;30.464;2023-07-16T09:08:01;32.11;27.74
78366;HTU21D;67641;59.864;30.464;2023-07-16T09:10:29;32.12;27.58
78366;HTU21D;67641;59.864;30.464;2023-07-16T09:12:58;32.14;27.64
78366;HTU21D;67641;59.864;30.464;2023-07-16T09:15:29;32.18;28.07
78366;HTU21D;67641;59.864;30.464;2023-07-16T09:17:57;32.28;27.22
78366;HTU21D;67641;59.864;30.464;2023-07-16T09:20:26;32.32;27.47
78366;HTU21D;67641;59.864;30.464;2023-07-16T09:23:02;32.33;26.92
78366;HTU21D;67641;59.864;30.464;2023-07-16T09:30:17;32.56;27.20
78366;HTU21D;67641;59.864;30.464;2023-07-16T09:33:56;32.68;27.10
78366;HTU21D;67641;59.864;30.464;2023-07-16T09:37:24;32.78;26.49
78366;HTU21D;67641;59.864;30.464;2023-07-16T09:39:53;32.88;25.80
78366;HTU21D;67641;59.864;30.464;2023-07-16T09:42:20;32.99;25.96
78366;HTU21D;67641;59.864;30.464;2023-07-16T09:44:58;33.12;25.36
78366;HTU21D;67641;59.864;30.464;2023-07-16T09:47:28;33.30;25.28
78366;HTU21D;67641;59.864;30.464;2023-07-16T09:53:01;33.46;24.34
78366;HTU21D;67641;59.864;30.464;2023-07-16T09:56:00;33.64;24.30
78366;HTU21D;67641;59.864;30.464;2023-07-16T09:58:56;33.72;24.99
78366;HTU21D;67641;59.864;30.464;2023-07-16T10:01:26;33.77;23.92
78366;HTU21D;67641;59.864;30.464;2023-07-16T10:03:55;33.90;24.33
78366;HTU21D;67641;59.864;30.464;2023-07-16T10:06:27;34.00;23.14
78366;HTU21D;67641;59.864;30.464;2023-07-16T10:08:56;34.03;23.55
78366;HTU21D;67641;59.864;30.464;2023-07-16T10:11:37;34.20;23.85
78366;HTU21D;67641;59.864;30.464;2023-07-16T10:17:11;34.44;22.54
78366;HTU21D;67641;59.864;30.464;2023-07-16T10:19:50;34.62;23.17
78366;HTU21D;67641;59.864;30.464;2023-07-16T10:22:19;34.79;21.70
78366;HTU21D;67641;59.864;30.464;2023-07-16T10:28:29;35.06;20.89
78366;HTU21D;67641;59.864;30.464;2023-07-16T10:31:01;35.13;20.62
78366;HTU21D;67641;59.864;30.464;2023-07-16T10:34:06;35.31;20.97
78366;HTU21D;67641;59.864;30.464;2023-07-16T10:36:38;35.50;19.86
78366;HTU21D;67641;59.864;30.464;2023-07-16T10:41:40;35.80;19.39
78366;HTU21D;67641;59.864;30.464;2023-07-16T10:44:10;35.90;19.24
78366;HTU21D;67641;59.864;30.464;2023-07-16T10:46:42;36.04;18.81
78366;HTU21D;67641;59.864;30.464;2023-07-16T10:52:27;36.27;18.72
78366;HTU21D;67641;59.864;30.464;2023-07-16T10:55:32;36.48;17.82
78366;HTU21D;67641;59.864;30.464;2023-07-16T10:58:53;36.82;18.09
78366;HTU21D;67641;59.864;30.464;2023-07-16T11:17:56;41.42;12.45
78366;HTU21D;67641;59.864;30.464;2023-07-16T11:20:25;42.70;11.04
78366;HTU21D;67641;59.864;30.464;2023-07-16T11:22:52;44.83;9.15
78366;HTU21D;67641;59.864;30.464;2023-07-16T11:25:24;47.27;7.85
78366;HTU21D;67641;59.864;30.464;2023-07-16T11:27:56;48.82;6.37
78366;HTU21D;67641;59.864;30.464;2023-07-16T11:30:25;49.88;5.18
78366;HTU21D;67641;59.864;30.464;2023-07-16T12:01:04;45.43;7.46
78366;HTU21D;67641;59.864;30.464;2023-07-16T12:21:52;43.12;10.34
78366;HTU21D;67641;59.864;30.464;2023-07-16T12:24:23;42.82;9.82
78366;HTU21D;67641;59.864;30.464;2023-07-16T12:26:57;42.32;10.39
78366;HTU21D;67641;59.864;30.464;2023-07-16T12:29:29;42.31;10.59
78366;HTU21D;67641;59.864;30.464;2023-07-16T12:31:56;41.94;10.72
78366;HTU21D;67641;59.864;30.464;2023-07-16T12:34:23;41.67;10.72
78366;HTU21D;67641;59.864;30.464;2023-07-16T12:36:52;41.42;11.01
78366;HTU21D;67641;59.864;30.464;2023-07-16T12:39:28;41.13;11.11
78366;HTU21D;67641;59.864;30.464;2023-07-16T12:41:55;40.84;11.33
78366;HTU21D;67641;59.864;30.464;2023-07-16T12:44:24;40.86;11.97
78366;HTU21D;67641;59.864;30.464;2023-07-16T12:46:51;40.74;11.88
78366;HTU21D;67641;59.864;30.464;2023-07-16T12:52:21;40.74;11.56
78366;HTU21D;67641;59.864;30.464;2023-07-16T12:54:48;40.76;11.72
78366;HTU21D;67641;59.864;30.464;2023-07-16T12:57:16;40.93;12.64
78366;HTU21D;67641;59.864;30.464;2023-07-16T12:59:43;41.24;11.88
78366;HTU21D;67641;59.864;30.464;2023-07-16T13:02:09;41.42;11.45
78366;HTU21D;67641;59.864;30.464;2023-07-16T13:04:36;41.44;11.45
78366;HTU21D;67641;59.864;30.464;2023-07-16T13:07:03;41.50;10.91
78366;HTU21D;67641;59.864;30.464;2023-07-16T13:25:26;41.35;11.11
78366;HTU21D;67641;59.864;30.464;2023-07-16T13:27:54;41.26;11.26
78366;HTU21D;67641;59.864;30.464;2023-07-16T13:30:20;41.31;11.62
78366;HTU21D;67641;59.864;30.464;2023-07-16T13:32:48;41.34;10.98
78366;HTU21D;67641;59.864;30.464;2023-07-16T13:35:15;41.46;11.25
78366;HTU21D;67641;59.864;30.464;2023-07-16T13:37:47;41.45;11.44
78366;HTU21D;67641;59.864;30.464;2023-07-16T13:40:14;41.52;10.80
78366;HTU21D;67641;59.864;30.464;2023-07-16T13:42:40;41.30;10.92
78366;HTU21D;67641;59.864;30.464;2023-07-16T13:47:40;41.05;11.25
78366;HTU21D;67641;59.864;30.464;2023-07-16T13:50:30;41.19;11.10
78366;HTU21D;67641;59.864;30.464;2023-07-16T13:53:08;41.13;11.68
78366;HTU21D;67641;59.864;30.464;2023-07-16T13:55:35;41.32;11.75
78366;HTU21D;67641;59.864;30.464;2023-07-16T13:58:13;41.43;10.72
78366;HTU21D;67641;59.864;30.464;2023-07-16T14:29:57;41.00;11.83
78366;HTU21D;67641;59.864;30.464;2023-07-16T15:02:21;39.97;12.01
78366;HTU21D;67641;59.864;30.464;2023-07-16T15:05:56;39.73;12.79
78366;HTU21D;67641;59.864;30.464;2023-07-16T15:26:05;39.96;13.87
78366;HTU21D;67641;59.864;30.464;2023-07-16T15:29:28;39.86;13.73
78366;HTU21D;67641;59.864;30.464;2023-07-16T15:32:27;39.67;14.10
78366;HTU21D;67641;59.864;30.464;2023-07-16T15:35:19;39.77;13.56
78366;HTU21D;67641;59.864;30.464;2023-07-16T15:37:51;39.55;13.69
78366;HTU21D;67641;59.864;30.464;2023-07-16T15:54:14;38.55;15.77
78366;HTU21D;67641;59.864;30.464;2023-07-16T16:11:43;36.95;18.46
78366;HTU21D;67641;59.864;30.464;2023-07-16T16:14:33;36.72;18.21
78366;HTU21D;67641;59.864;30.464;2023-07-16T16:21:05;36.08;19.27
78366;HTU21D;67641;59.864;30.464;2023-07-16T16:24:03;35.92;19.45
78366;HTU21D;67641;59.864;30.464;2023-07-16T16:26:43;35.78;20.68
78366;HTU21D;67641;59.864;30.464;2023-07-16T16:30:14;35.77;20.78
78366;HTU21D;67641;59.864;30.464;2023-07-16T16:55:13;34.83;22.53
78366;HTU21D;67641;59.864;30.464;2023-07-16T16:57:48;34.78;22.07
78366;HTU21D;67641;59.864;30.464;2023-07-16T17:00:23;34.67;22.33
78366;HTU21D;67641;59.864;30.464;2023-07-16T17:02:50;34.60;22.42
78366;HTU21D;67641;59.864;30.464;2023-07-16T17:05:22;34.54;22.70
78366;HTU21D;67641;59.864;30.464;2023-07-16T17:09:31;34.35;23.76
78366;HTU21D;67641;59.864;30.464;2023-07-16T17:11:59;34.17;23.43
78366;HTU21D;67641;59.864;30.464;2023-07-16T17:14:25;34.15;23.50
78366;HTU21D;67641;59.864;30.464;2023-07-16T17:16:52;34.11;24.00
78366;HTU21D;67641;59.864;30.464;2023-07-16T17:19:22;33.99;23.28
78366;HTU21D;67641;59.864;30.464;2023-07-16T17:21:49;33.83;24.39
78366;HTU21D;67641;59.864;30.464;2023-07-16T17:26:51;33.77;24.25
78366;HTU21D;67641;59.864;30.464;2023-07-16T17:30:01;33.65;23.89
78366;HTU21D;67641;59.864;30.464;2023-07-16T17:36:05;33.43;23.91
78366;HTU21D;67641;59.864;30.464;2023-07-16T17:38:34;33.38;24.65
78366;HTU21D;67641;59.864;30.464;2023-07-16T17:41:01;33.36;24.69
78366;HTU21D;67641;59.864;30.464;2023-07-16T17:43:27;33.22;24.82
78366;HTU21D;67641;59.864;30.464;2023-07-16T17:45:56;33.09;24.28
78366;HTU21D;67641;59.864;30.464;2023-07-16T17:48:24;32.98;23.92
78366;HTU21D;67641;59.864;30.464;2023-07-16T17:50:51;32.85;24.81
78366;HTU21D;67641;59.864;30.464;2023-07-16T17:55:54;32.74;25.37
78366;HTU21D;67641;59.864;30.464;2023-07-16T17:58:29;32.64;24.21
78366;HTU21D;67641;59.864;30.464;2023-07-16T18:01:09;32.60;24.63
78366;HTU21D;67641;59.864;30.464;2023-07-16T18:03:53;32.58;25.04
78366;HTU21D;67641;59.864;30.464;2023-07-16T18:06:24;32.57;23.90
78366;HTU21D;67641;59.864;30.464;2023-07-16T18:11:16;32.59;23.82
78366;HTU21D;67641;59.864;30.464;2023-07-16T18:13:48;32.48;23.91
78366;HTU21D;67641;59.864;30.464;2023-07-16T18:16:37;32.40;23.88
78366;HTU21D;67641;59.864;30.464;2023-07-16T18:19:07;32.27;24.20
78366;HTU21D;67641;59.864;30.464;2023-07-16T18:21:39;32.20;24.14
78366;HTU21D;67641;59.864;30.464;2023-07-16T18:24:16;32.16;24.20
78366;HTU21D;67641;59.864;30.464;2023-07-16T18:28:07;32.00;23.90
78366;HTU21D;67641;59.864;30.464;2023-07-16T18:30:34;31.97;24.28
78366;HTU21D;67641;59.864;30.464;2023-07-16T18:39:17;31.92;24.55
78366;HTU21D;67641;59.864;30.464;2023-07-16T18:42:33;31.83;23.89
78366;HTU21D;67641;59.864;30.464;2023-07-16T18:45:00;31.78;23.89
78366;HTU21D;67641;59.864;30.464;2023-07-16T19:02:34;31.54;23.83
78366;HTU21D;67641;59.864;30.464;2023-07-16T19:05:01;31.48;24.43
78366;HTU21D;67641;59.864;30.464;2023-07-16T19:07:30;31.48;24.40
78366;HTU21D;67641;59.864;30.464;2023-07-16T19:10:43;31.44;23.90
78366;HTU21D;67641;59.864;30.464;2023-07-16T19:13:09;31.33;24.14
78366;HTU21D;67641;59.864;30.464;2023-07-16T19:15:36;31.31;24.05
78366;HTU21D;67641;59.864;30.464;2023-07-16T19:20:53;31.24;23.88
78366;HTU21D;67641;59.864;30.464;2023-07-16T19:23:27;31.15;24.75
78366;HTU21D;67641;59.864;30.464;2023-07-16T19:28:45;30.98;23.91
78366;HTU21D;67641;59.864;30.464;2023-07-16T19:40:39;30.92;24.49
78366;HTU21D;67641;59.864;30.464;2023-07-16T19:49:41;30.87;24.49
78366;HTU21D;67641;59.864;30.464;2023-07-16T19:52:08;30.84;24.24
78366;HTU21D;67641;59.864;30.464;2023-07-16T20:05:22;30.69;24.31
78366;HTU21D;67641;59.864;30.464;2023-07-16T20:08:14;30.67;24.20
78366;HTU21D;67641;59.864;30.464;2023-07-16T20:11:54;30.63;24.43
78366;HTU21D;67641;59.864;30.464;2023-07-16T20:14:30;30.61;24.52
78366;HTU21D;67641;59.864;30.464;2023-07-16T20:17:02;30.60;24.69
78366;HTU21D;67641;59.864;30.464;2023-07-16T20:19:34;30.48;24.59
78366;HTU21D;67641;59.864;30.464;2023-07-16T20:22:01;30.44;25.06
78366;HTU21D;67641;59.864;30.464;2023-07-16T20:24:50;30.44;24.39
78366;HTU21D;67641;59.864;30.464;2023-07-16T20:27:58;30.42;24.56
78366;HTU21D;67641;59.864;30.464;2023-07-16T20:30:26;30.44;24.57
78366;HTU21D;67641;59.864;30.464;2023-07-16T20:35:04;30.41;24.60
78366;HTU21D;67641;59.864;30.464;2023-07-16T20:38:51;30.39;24.79
78366;HTU21D;67641;59.864;30.464;2023-07-16T23:52:25;28.56;28.68
